Time;durP1;ratioP1;P1;durP2;ratioP2;P2;SDS_P1;SDS_P2;PMS_P1;PMS_P2;Temp;Humidity;BMP_temperature;BMP_pressure;BME280_temperature;BME280_humidity;BME280_pressure;Samples;Min_cycle;Max_cycle;Signal;HPM_P1;HPM_P2
2021/10/16 00:02:12;;;;;;;4.63;1.08;;;7.20;99.90;;;;;;5016755;28;20022;-79
2021/10/16 00:04:38;;;;;;;6.28;1.60;;;9.10;99.90;;;;;;5017358;28;20026;-79
2021/10/16 00:07:03;;;;;;;5.15;1.20;;;7.30;99.90;;;;;;5017154;28;20036;-79
2021/10/16 00:09:29;;;;;;;5.05;1.02;;;7.30;99.90;;;;;;5016804;28;20084;-79
2021/10/16 00:11:55;;;;;;;4.82;1.00;;;7.30;99.90;;;;;;5018257;28;20026;-79
2021/10/16 00:14:20;;;;;;;5.63;1.00;;;7.30;99.90;;;;;;5016016;28;20044;-79
2021/10/16 00:16:46;;;;;;;2.88;0.90;;;7.40;99.90;;;;;;5016600;28;20010;-79
2021/10/16 00:19:11;;;;;;;4.22;0.82;;;7.40;99.90;;;;;;5017198;28;20052;-80
2021/10/16 00:21:38;;;;;;;3.30;1.17;;;7.40;99.90;;;;;;5018414;28;20077;-80
2021/10/16 00:24:04;;;;;;;5.40;1.45;;;8.40;99.90;;;;;;5017236;28;20105;-80
2021/10/16 00:26:31;;;;;;;3.92;1.02;;;7.40;99.90;;;;;;5017240;28;20025;-81
2021/10/16 00:28:57;;;;;;;8.73;0.93;;;7.50;99.90;;;;;;5017704;28;20394;-81
2021/10/16 00:31:23;;;;;;;5.75;0.70;;;7.50;99.90;;;;;;5018401;28;20029;-80
2021/10/16 00:33:48;;;;;;;5.60;0.80;;;7.50;99.90;;;;;;5016237;28;20394;-80
2021/10/16 00:36:14;;;;;;;5.28;1.05;;;7.50;99.90;;;;;;5016535;28;20014;-80
2021/10/16 00:38:40;;;;;;;4.20;0.63;;;7.60;99.90;;;;;;5016416;28;20145;-79
2021/10/16 00:41:05;;;;;;;4.45;1.63;;;7.60;99.90;;;;;;5018192;28;20022;-81
2021/10/16 00:43:31;;;;;;;4.55;1.48;;;7.60;99.90;;;;;;5016990;28;20124;-80
2021/10/16 00:45:56;;;;;;;1.88;0.50;;;7.60;99.90;;;;;;5018849;28;20054;-79
2021/10/16 00:48:22;;;;;;;2.05;0.52;;;7.70;99.90;;;;;;5018441;28;20554;-78
2021/10/16 00:50:48;;;;;;;10.13;0.95;;;7.70;99.90;;;;;;5018783;28;20096;-79
2021/10/16 00:53:14;;;;;;;8.88;1.90;;;7.70;99.90;;;;;;5020192;28;20022;-79
2021/10/16 00:55:41;;;;;;;9.93;1.45;;;7.70;99.90;;;;;;5022188;28;20018;-79
2021/10/16 00:58:06;;;;;;;5.63;1.67;;;7.70;99.90;;;;;;5021929;28;20014;-80
2021/10/16 01:00:32;;;;;;;12.18;1.50;;;7.80;99.90;;;;;;5017407;28;20463;-79
2021/10/16 01:02:58;;;;;;;5.22;0.88;;;7.80;99.90;;;;;;5020118;28;20025;-79
2021/10/16 01:05:23;;;;;;;4.32;1.10;;;7.80;99.90;;;;;;5020827;28;20501;-79
2021/10/16 01:07:49;;;;;;;3.63;0.80;;;7.80;99.90;;;;;;5021142;28;20022;-79
2021/10/16 01:10:15;;;;;;;5.10;0.90;;;7.80;99.90;;;;;;5020804;28;20032;-80
2021/10/16 01:12:43;;;;;;;3.28;0.88;;;7.80;99.90;;;;;;5021374;28;20438;-80
2021/10/16 01:15:16;;;;;;;4.80;1.13;;;7.90;99.90;;;;;;5021101;28;20021;-79
2021/10/16 01:17:48;;;;;;;5.50;0.50;;;7.80;99.90;;;;;;5022004;28;20109;-79
2021/10/16 01:20:23;;;;;;;3.92;0.52;;;7.90;99.90;;;;;;5019540;28;20037;-79
2021/10/16 01:22:49;;;;;;;5.40;1.05;;;7.90;99.90;;;;;;5019729;28;20108;-79
2021/10/16 01:25:18;;;;;;;9.02;1.25;;;7.90;99.90;;;;;;5019060;28;20025;-79
2021/10/16 01:27:43;;;;;;;4.82;0.80;;;7.90;99.90;;;;;;5021154;28;20018;-80
2021/10/16 01:30:12;;;;;;;2.58;0.65;;;7.90;99.90;;;;;;5020052;28;20022;-79
2021/10/16 01:32:39;;;;;;;4.97;0.90;;;7.90;99.90;;;;;;5021037;28;20025;-80
2021/10/16 01:35:07;;;;;;;7.93;1.83;;;7.90;99.90;;;;;;5026568;28;20018;-80
2021/10/16 01:37:33;;;;;;;2.95;0.55;;;8.00;99.90;;;;;;5030916;28;20097;-80
2021/10/16 01:39:59;;;;;;;3.53;0.75;;;8.00;99.90;;;;;;5031184;28;20052;-80
2021/10/16 01:42:25;;;;;;;5.40;0.82;;;9.90;99.90;;;;;;5023808;28;20085;-80
2021/10/16 01:44:51;;;;;;;4.05;0.70;;;7.90;99.90;;;;;;5031482;28;20022;-81
2021/10/16 01:47:16;;;;;;;7.97;1.25;;;8.00;99.90;;;;;;5017330;28;20037;-78
2021/10/16 01:49:42;;;;;;;4.28;0.70;;;7.90;99.90;;;;;;5013409;28;20044;-78
2021/10/16 01:52:07;;;;;;;5.45;0.73;;;8.00;99.90;;;;;;5013765;28;20388;-80
2021/10/16 01:54:33;;;;;;;3.33;0.70;;;8.00;99.90;;;;;;5016406;28;20490;-80
2021/10/16 01:56:59;;;;;;;3.30;0.63;;;8.00;99.90;;;;;;5015046;28;20432;-80
2021/10/16 01:59:26;;;;;;;3.83;0.60;;;8.00;99.90;;;;;;5015604;28;20101;-80
2021/10/16 02:01:55;;;;;;;2.58;0.80;;;8.00;99.90;;;;;;5016345;28;20108;-80
2021/10/16 02:04:20;;;;;;;4.25;0.85;;;8.00;99.90;;;;;;5018248;28;20033;-82
2021/10/16 02:06:46;;;;;;;4.95;0.68;;;8.10;99.90;;;;;;5018682;28;20025;-81
2021/10/16 02:09:12;;;;;;;3.45;0.57;;;8.10;99.90;;;;;;5019668;28;20025;-81
2021/10/16 02:11:38;;;;;;;3.17;0.50;;;8.10;99.90;;;;;;5020801;28;20080;-82
2021/10/16 02:14:07;;;;;;;4.53;0.70;;;8.10;99.90;;;;;;5019077;28;20395;-82
2021/10/16 02:16:33;;;;;;;3.15;0.60;;;8.10;99.90;;;;;;5018472;28;20017;-82
2021/10/16 02:18:59;;;;;;;2.20;0.63;;;8.10;99.90;;;;;;5021948;28;20102;-80
2021/10/16 02:21:25;;;;;;;3.20;0.80;;;8.10;99.90;;;;;;5018738;28;20024;-81
2021/10/16 02:23:51;;;;;;;3.53;0.50;;;8.10;99.90;;;;;;5021575;28;20030;-81
2021/10/16 02:26:17;;;;;;;6.18;0.43;;;8.10;99.90;;;;;;5024478;28;20091;-81
2021/10/16 02:28:43;;;;;;;4.13;0.73;;;8.20;99.90;;;;;;5023851;28;20045;-83
2021/10/16 02:31:09;;;;;;;3.92;1.38;;;8.20;99.90;;;;;;5020668;28;20079;-80
2021/10/16 02:33:34;;;;;;;3.92;0.63;;;8.20;99.90;;;;;;5019889;28;20091;-82
2021/10/16 02:36:00;;;;;;;1.38;0.45;;;8.20;99.90;;;;;;5022117;28;20018;-81
2021/10/16 02:38:25;;;;;;;2.35;0.40;;;8.20;99.90;;;;;;5018750;28;20029;-79
2021/10/16 02:40:52;;;;;;;6.53;1.05;;;8.20;99.90;;;;;;5013169;28;20052;-79
2021/10/16 02:43:18;;;;;;;2.72;0.45;;;8.20;99.90;;;;;;5013374;28;20081;-80
2021/10/16 02:45:43;;;;;;;4.80;0.77;;;8.20;99.90;;;;;;5013954;28;20486;-83
2021/10/16 02:48:09;;;;;;;5.47;0.98;;;8.20;99.90;;;;;;5014892;28;20479;-82
2021/10/16 02:50:34;;;;;;;3.65;0.85;;;8.20;99.90;;;;;;5014198;28;20157;-80
2021/10/16 02:53:00;;;;;;;4.97;0.73;;;8.30;99.90;;;;;;5017731;28;20028;-80
2021/10/16 02:55:26;;;;;;;4.28;0.65;;;8.30;99.90;;;;;;5015586;28;20022;-78
2021/10/16 02:57:51;;;;;;;3.88;0.60;;;8.30;99.90;;;;;;5014142;28;20029;-78
2021/10/16 03:00:17;;;;;;;4.97;1.00;;;8.30;99.90;;;;;;5012787;28;20018;-77
2021/10/16 03:02:43;;;;;;;3.97;0.80;;;8.30;99.90;;;;;;5012733;28;20018;-78
2021/10/16 03:05:09;;;;;;;4.30;1.52;;;8.30;99.90;;;;;;5013963;28;20483;-78
2021/10/16 03:07:34;;;;;;;4.53;0.93;;;8.30;99.90;;;;;;5016358;28;20033;-78
2021/10/16 03:10:00;;;;;;;3.45;0.82;;;8.30;99.90;;;;;;5017682;28;20030;-78
2021/10/16 03:12:25;;;;;;;5.40;0.93;;;8.30;99.90;;;;;;5016443;28;20391;-77
2021/10/16 03:14:51;;;;;;;5.20;0.63;;;8.40;99.90;;;;;;5016497;28;20077;-77
2021/10/16 03:17:17;;;;;;;9.07;1.48;;;8.40;99.90;;;;;;5017830;28;20026;-77
2021/10/16 03:19:43;;;;;;;7.07;0.90;;;8.40;99.90;;;;;;5016415;28;20072;-78
2021/10/16 03:22:09;;;;;;;2.47;0.55;;;8.40;99.90;;;;;;5016413;28;20483;-78
2021/10/16 03:24:38;;;;;;;4.13;0.65;;;8.50;99.90;;;;;;5017390;28;20084;-78
2021/10/16 03:27:04;;;;;;;;;;;8.50;99.90;;;;;;5017646;28;20453;-77
2021/10/16 03:29:29;;;;;;;5.20;1.05;;;8.50;99.90;;;;;;5017407;28;19948;-77
2021/10/16 03:31:55;;;;;;;8.18;0.85;;;8.50;99.90;;;;;;5017593;28;20072;-77
2021/10/16 03:34:21;;;;;;;5.80;0.80;;;8.50;99.90;;;;;;5018298;28;20069;-77
2021/10/16 03:36:46;;;;;;;6.75;0.80;;;8.50;99.90;;;;;;5017417;28;20391;-77
2021/10/16 03:39:12;;;;;;;7.35;0.88;;;8.50;99.90;;;;;;5018801;28;20025;-78
2021/10/16 03:41:38;;;;;;;2.45;0.50;;;8.50;99.90;;;;;;5017104;28;20171;-77
2021/10/16 03:44:03;;;;;;;6.28;1.00;;;8.50;99.90;;;;;;5018203;28;20036;-78
2021/10/16 03:46:29;;;;;;;5.93;0.88;;;8.50;99.90;;;;;;5018024;28;20116;-78
2021/10/16 03:48:55;;;;;;;11.05;0.40;;;8.50;99.90;;;;;;5018947;28;20030;-79
2021/10/16 03:51:21;;;;;;;4.60;0.60;;;8.50;99.90;;;;;;5019072;28;20022;-80
2021/10/16 03:53:47;;;;;;;4.53;0.95;;;8.50;99.90;;;;;;5018115;28;20036;-80
2021/10/16 03:56:12;;;;;;;6.80;0.60;;;8.50;99.90;;;;;;5018782;28;20094;-80
2021/10/16 03:58:38;;;;;;;8.63;0.60;;;8.50;99.90;;;;;;5018498;28;20032;-80
2021/10/16 04:01:03;;;;;;;4.65;0.40;;;8.50;99.90;;;;;;5018859;28;20026;-80
2021/10/16 04:03:29;;;;;;;5.40;0.88;;;8.50;99.90;;;;;;5016640;28;20026;-79
2021/10/16 04:05:55;;;;;;;5.18;0.60;;;8.50;99.90;;;;;;5017208;28;20036;-79
2021/10/16 04:08:22;;;;;;;8.55;1.02;;;8.50;99.90;;;;;;5015812;28;20025;-79
2021/10/16 04:10:48;;;;;;;16.10;1.48;;;8.40;99.90;;;;;;5015812;28;20026;-79
2021/10/16 04:13:14;;;;;;;8.40;0.68;;;8.40;99.90;;;;;;5016342;28;20028;-80
2021/10/16 04:15:39;;;;;;;6.90;1.10;;;8.40;99.90;;;;;;5016928;28;20022;-80
2021/10/16 04:18:05;;;;;;;11.40;0.70;;;8.40;99.90;;;;;;5015816;28;20025;-81
2021/10/16 04:20:31;;;;;;;6.43;0.90;;;8.40;99.90;;;;;;5017334;28;20092;-80
2021/10/16 04:22:57;;;;;;;4.07;0.20;;;8.30;99.90;;;;;;5016946;28;20029;-81
2021/10/16 04:25:23;;;;;;;5.95;0.85;;;8.30;99.90;;;;;;5017874;28;20030;-80
2021/10/16 04:27:49;;;;;;;3.05;0.57;;;8.30;99.90;;;;;;5016211;28;20022;-80
2021/10/16 04:30:14;;;;;;;5.28;0.88;;;8.30;99.90;;;;;;5016240;28;20049;-80
2021/10/16 04:32:40;;;;;;;9.80;0.95;;;8.30;99.90;;;;;;5016499;28;20025;-81
2021/10/16 04:35:08;;;;;;;7.45;0.70;;;8.30;99.90;;;;;;5016505;28;20021;-80
2021/10/16 04:37:34;;;;;;;6.70;0.82;;;8.30;99.90;;;;;;5018226;28;20050;-80
2021/10/16 04:40:09;;;;;;;6.75;0.57;;;8.30;99.90;;;;;;5016616;28;20026;-82
2021/10/16 04:42:35;;;;;;;5.63;1.27;;;8.30;99.90;;;;;;5017499;28;20097;-81
2021/10/16 04:45:00;;;;;;;7.80;1.17;;;8.40;99.90;;;;;;5015789;28;20101;-81
2021/10/16 04:47:26;;;;;;;4.90;0.93;;;8.40;99.90;;;;;;5017483;28;20028;-81
2021/10/16 04:49:52;;;;;;;3.47;1.00;;;8.40;99.90;;;;;;5016239;28;20483;-81
2021/10/16 04:52:17;;;;;;;5.20;0.40;;;8.40;99.90;;;;;;5016186;28;20486;-82
2021/10/16 04:54:43;;;;;;;3.67;1.13;;;8.50;99.90;;;;;;5016943;28;20026;-82
2021/10/16 04:57:08;;;;;;;7.30;1.02;;;8.50;99.90;;;;;;5016382;28;20022;-82
2021/10/16 04:59:34;;;;;;;6.82;1.00;;;8.50;99.90;;;;;;5015876;28;20074;-81
2021/10/16 05:01:59;;;;;;;6.75;0.50;;;8.50;99.90;;;;;;5015759;28;20028;-81
2021/10/16 05:04:25;;;;;;;4.40;0.30;;;8.50;99.90;;;;;;5016388;28;20022;-82
2021/10/16 05:06:50;;;;;;;5.68;1.42;;;8.50;99.90;;;;;;5016030;28;20468;-82
2021/10/16 05:09:16;;;;;;;4.07;0.68;;;8.50;99.90;;;;;;5016717;28;20025;-82
2021/10/16 05:11:42;;;;;;;5.30;0.32;;;8.50;99.90;;;;;;5018681;28;20549;-80
2021/10/16 05:14:11;;;;;;;5.15;0.38;;;8.50;99.90;;;;;;5016223;28;20022;-81
2021/10/16 05:16:36;;;;;;;1.77;0.22;;;8.50;99.90;;;;;;5017216;28;20116;-80
2021/10/16 05:19:02;;;;;;;4.18;0.65;;;8.50;99.90;;;;;;5017966;28;20501;-82
2021/10/16 05:21:30;;;;;;;4.50;0.52;;;8.50;99.90;;;;;;5016099;28;20029;-78
2021/10/16 05:23:56;;;;;;;4.13;0.63;;;8.50;99.90;;;;;;5014520;28;20384;-78
2021/10/16 05:26:22;;;;;;;9.35;0.45;;;8.50;99.90;;;;;;5014011;28;20033;-78
2021/10/16 05:28:47;;;;;;;9.02;0.55;;;8.50;99.90;;;;;;5016143;28;20029;-79
2021/10/16 05:31:13;;;;;;;5.80;0.68;;;8.50;99.90;;;;;;5019655;28;20103;-79
2021/10/16 05:33:38;;;;;;;4.00;0.90;;;8.60;99.90;;;;;;5017187;28;20365;-79
2021/10/16 05:36:04;;;;;;;8.75;0.75;;;8.60;99.90;;;;;;5016508;28;20026;-79
2021/10/16 05:38:30;;;;;;;7.05;0.85;;;8.60;99.90;;;;;;5013694;28;20024;-78
2021/10/16 05:40:56;;;;;;;4.10;0.60;;;8.60;99.90;;;;;;5013352;28;20010;-78
2021/10/16 05:43:21;;;;;;;6.00;1.50;;;8.60;99.90;;;;;;5016746;28;20025;-77
2021/10/16 05:45:47;;;;;;;5.05;1.15;;;8.60;99.90;;;;;;5016820;28;20034;-77
2021/10/16 05:48:12;;;;;;;5.82;0.22;;;8.60;99.90;;;;;;5017205;28;20018;-77
2021/10/16 05:50:38;;;;;;;2.22;0.38;;;8.60;99.90;;;;;;5018269;28;20022;-80
2021/10/16 05:53:04;;;;;;;4.88;0.60;;;8.60;99.90;;;;;;5017838;28;20089;-78
2021/10/16 05:55:30;;;;;;;3.17;0.52;;;8.70;99.90;;;;;;5021932;28;20101;-78
2021/10/16 05:57:55;;;;;;;3.75;0.55;;;8.60;99.90;;;;;;5021756;28;20052;-79
2021/10/16 06:00:21;;;;;;;4.07;0.85;;;8.60;99.90;;;;;;5024032;28;20034;-79
2021/10/16 06:02:46;;;;;;;6.03;0.47;;;8.60;99.90;;;;;;5023639;28;20509;-80
2021/10/16 06:05:12;;;;;;;8.57;0.75;;;10.10;99.90;;;;;;5020655;28;20475;-79
2021/10/16 06:07:38;;;;;;;3.03;0.70;;;8.70;99.90;;;;;;5018373;28;20018;-78
2021/10/16 06:10:04;;;;;;;4.47;0.55;;;8.70;99.90;;;;;;5020064;28;20168;-79
2021/10/16 06:12:29;;;;;;;5.25;0.60;;;8.70;99.90;;;;;;5021844;28;20029;-78
2021/10/16 06:14:55;;;;;;;6.40;1.10;;;8.70;99.90;;;;;;5022729;28;20026;-78
2021/10/16 06:17:21;;;;;;;3.42;0.90;;;8.70;99.90;;;;;;5024514;28;20026;-79
2021/10/16 06:19:46;;;;;;;4.63;0.50;;;8.70;99.90;;;;;;5021833;28;20025;-79
2021/10/16 06:22:12;;;;;;;5.03;0.80;;;8.70;99.90;;;;;;5020975;28;20026;-79
2021/10/16 06:24:37;;;;;;;7.93;0.73;;;8.70;99.90;;;;;;5022073;28;20084;-79
2021/10/16 06:27:03;;;;;;;8.57;0.47;;;8.70;99.90;;;;;;5020119;28;20029;-79
2021/10/16 06:29:29;;;;;;;8.77;1.52;;;8.70;99.90;;;;;;5022667;28;20026;-80
2021/10/16 06:31:55;;;;;;;6.88;0.45;;;8.80;99.90;;;;;;5021111;28;20025;-78
2021/10/16 06:34:20;;;;;;;9.30;1.25;;;8.80;99.90;;;;;;5021102;28;20025;-78
2021/10/16 06:36:46;;;;;;;9.27;1.60;;;8.80;99.90;;;;;;5022226;28;20101;-78
2021/10/16 06:39:12;;;;;;;4.35;0.65;;;8.80;99.90;;;;;;5021603;28;20018;-78
2021/10/16 06:41:37;;;;;;;10.77;1.10;;;8.90;99.90;;;;;;5016995;28;20022;-79
2021/10/16 06:44:03;;;;;;;6.93;1.20;;;8.90;99.90;;;;;;5018609;28;20069;-78
2021/10/16 06:46:29;;;;;;;5.72;0.95;;;8.90;99.90;;;;;;5015938;28;20037;-78
2021/10/16 06:48:55;;;;;;;7.32;1.23;;;8.90;99.90;;;;;;5013815;28;20030;-78
2021/10/16 06:51:20;;;;;;;8.10;1.02;;;9.00;99.90;;;;;;5012508;28;20029;-78
2021/10/16 06:53:46;;;;;;;4.93;1.05;;;9.00;99.90;;;;;;5014356;28;20463;-78
2021/10/16 06:56:12;;;;;;;8.15;0.52;;;9.00;99.90;;;;;;5013303;28;20049;-79
2021/10/16 06:58:37;;;;;;;3.95;0.50;;;9.10;99.90;;;;;;5012914;28;20475;-79
2021/10/16 07:01:03;;;;;;;8.10;0.70;;;9.10;99.90;;;;;;5012919;28;20037;-78
2021/10/16 07:03:32;;;;;;;7.95;1.23;;;9.20;99.90;;;;;;5012959;28;20557;-80
2021/10/16 07:05:57;;;;;;;4.00;0.73;;;9.20;99.90;;;;;;5013965;28;20061;-78
2021/10/16 07:08:29;;;;;;;5.97;0.90;;;9.20;99.90;;;;;;5012526;28;20061;-78
2021/10/16 07:10:56;;;;;;;8.30;1.27;;;9.30;99.90;;;;;;5015003;28;20049;-81
2021/10/16 07:13:22;;;;;;;6.03;0.80;;;9.40;99.90;;;;;;5019161;28;20510;-80
2021/10/16 07:15:48;;;;;;;3.13;0.52;;;9.40;99.90;;;;;;5017592;28;20014;-82
2021/10/16 07:18:14;;;;;;;7.07;0.80;;;9.50;99.90;;;;;;5020499;28;20092;-79
2021/10/16 07:20:42;;;;;;;8.65;0.90;;;9.50;99.90;;;;;;5018611;28;20029;-82
2021/10/16 07:23:10;;;;;;;8.98;0.63;;;9.50;99.90;;;;;;5019691;28;20030;-82
2021/10/16 07:25:36;;;;;;;9.48;1.08;;;9.60;99.90;;;;;;5018753;28;20045;-82
2021/10/16 07:28:01;;;;;;;4.07;0.80;;;10.10;99.90;;;;;;5018349;28;20561;-82
2021/10/16 07:30:27;;;;;;;9.52;0.57;;;9.70;99.90;;;;;;5019474;28;20025;-83
2021/10/16 07:32:53;;;;;;;10.18;1.20;;;9.80;99.90;;;;;;5021690;28;20105;-80
2021/10/16 07:35:18;;;;;;;5.50;0.95;;;9.80;99.90;;;;;;5021808;28;20041;-80
2021/10/16 07:37:44;;;;;;;7.47;0.98;;;9.90;99.90;;;;;;5021488;28;20033;-81
2021/10/16 07:40:11;;;;;;;7.72;0.70;;;10.50;99.90;;;;;;5018631;28;20021;-81
2021/10/16 07:42:38;;;;;;;9.38;1.10;;;10.00;99.90;;;;;;5018472;28;20088;-82
2021/10/16 07:45:04;;;;;;;3.80;0.60;;;10.10;99.90;;;;;;5019390;28;20030;-82
2021/10/16 07:47:31;;;;;;;6.38;0.60;;;10.10;99.90;;;;;;5019153;28;20073;-83
2021/10/16 07:49:56;;;;;;;5.20;0.88;;;10.10;99.90;;;;;;5020229;28;20386;-82
2021/10/16 07:52:22;;;;;;;12.60;1.75;;;10.20;99.90;;;;;;5019169;28;20034;-82
2021/10/16 07:54:48;;;;;;;7.78;0.85;;;10.20;99.90;;;;;;5021147;28;20022;-82
2021/10/16 07:57:17;;;;;;;4.75;0.60;;;10.20;99.90;;;;;;5021313;28;20506;-82
2021/10/16 07:59:43;;;;;;;6.57;0.65;;;10.30;99.90;;;;;;5021695;28;20152;-83
2021/10/16 08:02:08;;;;;;;10.23;0.50;;;10.30;99.90;;;;;;5018405;28;20124;-82
2021/10/16 08:04:34;;;;;;;7.40;0.55;;;10.40;99.90;;;;;;5019114;28;20037;-82
2021/10/16 08:07:00;;;;;;;7.53;1.08;;;10.40;99.90;;;;;;5016699;28;20026;-79
2021/10/16 08:09:26;;;;;;;4.95;0.40;;;10.50;99.90;;;;;;5017971;28;20483;-80
2021/10/16 08:11:51;;;;;;;5.07;0.73;;;10.50;99.90;;;;;;5015228;28;20025;-79
2021/10/16 08:14:17;;;;;;;11.57;1.33;;;10.50;99.90;;;;;;5021488;28;20041;-78
2021/10/16 08:16:42;;;;;;;12.35;0.93;;;10.50;99.90;;;;;;5022880;28;20491;-82
2021/10/16 08:19:08;;;;;;;6.45;0.93;;;10.50;99.90;;;;;;5019568;28;20022;-75
2021/10/16 08:21:35;;;;;;;14.80;0.82;;;10.60;99.90;;;;;;5020134;28;20026;-77
2021/10/16 08:24:01;;;;;;;4.85;0.95;;;10.60;99.90;;;;;;5018107;28;20069;-76
2021/10/16 08:26:26;;;;;;;4.90;0.17;;;10.70;99.90;;;;;;5014847;28;20471;-75
2021/10/16 08:28:52;;;;;;;5.45;0.55;;;10.70;99.90;;;;;;5016000;28;20034;-75
2021/10/16 08:31:18;;;;;;;5.13;0.68;;;10.80;99.90;;;;;;5015833;28;20124;-77
2021/10/16 08:33:43;;;;;;;4.18;0.88;;;10.80;99.90;;;;;;5014683;28;20080;-78
2021/10/16 08:36:09;;;;;;;8.82;0.55;;;10.90;99.90;;;;;;5014614;28;20430;-77
2021/10/16 08:38:35;;;;;;;6.57;0.50;;;11.00;99.90;;;;;;5014631;28;20415;-77
2021/10/16 08:41:00;;;;;;;7.28;0.80;;;11.10;99.90;;;;;;5015791;28;20084;-77
2021/10/16 08:43:27;;;;;;;9.75;0.28;;;12.30;99.90;;;;;;5015923;28;20372;-77
2021/10/16 08:45:55;;;;;;;6.97;0.40;;;11.10;99.90;;;;;;5014410;28;20120;-77
2021/10/16 08:48:21;;;;;;;9.68;0.32;;;11.10;99.90;;;;;;5015701;28;20125;-79
2021/10/16 08:50:48;;;;;;;9.57;0.65;;;11.10;99.90;;;;;;5015266;28;20049;-78
2021/10/16 08:53:15;;;;;;;6.32;0.55;;;11.10;99.90;;;;;;5014404;28;20034;-77
2021/10/16 08:55:42;;;;;;;7.72;1.00;;;11.00;99.90;;;;;;5016776;28;20029;-80
2021/10/16 08:58:08;;;;;;;4.53;0.60;;;11.00;99.90;;;;;;5019470;28;20025;-78
2021/10/16 09:00:51;;;;;;;5.63;0.35;;;11.10;99.90;;;;;;5019032;28;20022;-77
2021/10/16 09:03:30;;;;;;;7.90;0.85;;;11.20;99.90;;;;;;5017735;28;20029;-74
2021/10/16 09:06:30;;;;;;;8.82;1.02;;;11.30;99.90;;;;;;5017410;28;20483;-73
2021/10/16 09:09:09;;;;;;;16.50;1.88;;;11.50;99.90;;;;;;5007455;28;20045;-72
2021/10/16 09:11:40;;;;;;;8.75;0.82;;;11.60;99.90;;;;;;5020098;28;20391;-72
2021/10/16 09:14:07;;;;;;;13.82;0.55;;;11.80;99.90;;;;;;5017633;28;20029;-72
2021/10/16 09:16:32;;;;;;;5.75;0.50;;;12.00;99.90;;;;;;5018325;28;20026;-72
2021/10/16 09:19:08;;;;;;;8.52;1.30;;;12.10;99.90;;;;;;5020454;28;20033;-73
2021/10/16 09:21:34;;;;;;;13.82;1.75;;;12.20;99.90;;;;;;5018548;28;20021;-72
2021/10/16 09:24:15;;;;;;;6.13;0.63;;;12.30;99.90;;;;;;5017277;28;20034;-72
2021/10/16 09:26:43;;;;;;;7.07;0.77;;;12.40;99.90;;;;;;5015608;28;20350;-72
2021/10/16 09:29:10;;;;;;;6.75;0.47;;;12.50;99.90;;;;;;5013603;28;20030;-72
2021/10/16 09:31:48;;;;;;;5.88;0.40;;;12.60;99.90;;;;;;5015253;28;20499;-73
2021/10/16 09:34:25;;;;;;;10.45;0.60;;;12.70;99.90;;;;;;5019104;28;20096;-74
2021/10/16 09:36:52;;;;;;;8.10;0.30;;;12.70;99.90;;;;;;5019458;28;20037;-72
2021/10/16 09:39:19;;;;;;;3.85;0.00;;;12.80;99.90;;;;;;5019298;28;20022;-72
2021/10/16 09:41:46;;;;;;;4.78;0.60;;;12.80;99.90;;;;;;5018869;28;20022;-72
2021/10/16 09:44:20;;;;;;;12.23;1.00;;;12.80;99.90;;;;;;5018074;28;20077;-72
2021/10/16 09:47:18;;;;;;;5.75;0.77;;;12.80;99.90;;;;;;5017357;28;20033;-75
2021/10/16 09:49:57;;;;;;;5.43;0.47;;;12.90;99.90;;;;;;5019572;28;20049;-73
2021/10/16 09:52:38;;;;;;;14.80;0.90;;;12.90;99.90;;;;;;5020954;28;20041;-74
2021/10/16 09:55:06;;;;;;;5.30;0.32;;;13.00;99.90;;;;;;5020630;28;20093;-76
2021/10/16 09:57:32;;;;;;;8.10;0.83;;;12.90;99.90;;;;;;5023930;28;20037;-77
2021/10/16 10:00:04;;;;;;;6.00;0.57;;;12.90;99.90;;;;;;5019749;28;20029;-76
2021/10/16 10:02:30;;;;;;;4.10;0.43;;;12.80;99.90;;;;;;5013091;28;20048;-75
2021/10/16 10:04:57;;;;;;;5.97;0.35;;;12.90;99.90;;;;;;5012893;28;20026;-74
2021/10/16 10:07:24;;;;;;;4.85;0.95;;;13.00;99.90;;;;;;5014467;28;20057;-74
2021/10/16 10:09:50;;;;;;;5.05;0.70;;;12.90;99.90;;;;;;5012836;28;20022;-75
2021/10/16 10:12:16;;;;;;;11.68;0.45;;;12.90;99.90;;;;;;5014244;28;20483;-75
2021/10/16 10:14:44;;;;;;;6.20;0.32;;;12.90;99.90;;;;;;5014085;28;20108;-74
2021/10/16 10:17:13;;;;;;;7.30;0.28;;;13.00;99.90;;;;;;5013514;28;20018;-73
2021/10/16 10:19:45;;;;;;;3.65;0.13;;;13.00;99.90;;;;;;5013999;28;20026;-74
2021/10/16 10:22:18;;;;;;;2.67;0.10;;;12.90;99.90;;;;;;5014119;28;20467;-74
2021/10/16 10:24:46;;;;;;;4.85;0.45;;;13.00;99.90;;;;;;5012632;28;20412;-74
2021/10/16 10:27:14;;;;;;;14.13;0.67;;;12.90;99.90;;;;;;5012731;28;20168;-75
2021/10/16 10:29:43;;;;;;;6.28;0.77;;;13.00;99.90;;;;;;5013966;28;20072;-77
2021/10/16 10:32:17;;;;;;;;;;;12.90;99.90;;;;;;5014879;28;20022;-72
2021/10/16 10:34:54;;;;;;;7.50;0.57;;;12.90;99.90;;;;;;5013793;28;19913;-76
2021/10/16 10:37:20;;;;;;;7.20;0.55;;;12.80;99.90;;;;;;5013869;28;20136;-76
2021/10/16 10:39:49;;;;;;;4.90;0.70;;;12.80;99.90;;;;;;5012502;28;20049;-76
2021/10/16 10:42:14;;;;;;;11.27;0.80;;;12.80;99.90;;;;;;5012511;28;20010;-76
2021/10/16 10:44:47;;;;;;;4.20;0.45;;;12.80;99.90;;;;;;5014127;28;20151;-76
2021/10/16 10:47:36;;;;;;;4.97;0.65;;;12.80;99.90;;;;;;5012424;28;20041;-74
2021/10/16 10:50:07;;;;;;;2.70;0.65;;;12.90;99.90;;;;;;5013634;28;20391;-73
2021/10/16 10:53:09;;;;;;;6.85;0.28;;;12.90;99.90;;;;;;5012539;28;20053;-73
2021/10/16 10:55:51;;;;;;;4.72;0.20;;;12.90;99.90;;;;;;5012339;28;20029;-73
2021/10/16 10:58:18;;;;;;;5.43;1.00;;;13.00;99.90;;;;;;5014077;28;20121;-73
2021/10/16 11:00:45;;;;;;;4.63;0.40;;;13.10;99.90;;;;;;5014084;28;20037;-72
2021/10/16 11:03:28;;;;;;;4.53;0.20;;;13.20;99.90;;;;;;5013394;28;20022;-73
2021/10/16 11:06:14;;;;;;;6.07;0.65;;;13.30;99.90;;;;;;5013684;28;20440;-74
2021/10/16 11:08:40;;;;;;;5.53;0.80;;;13.40;99.90;;;;;;5014965;28;20094;-74
2021/10/16 11:11:06;;;;;;;8.68;1.13;;;13.40;99.90;;;;;;5016963;28;20057;-74
2021/10/16 11:13:34;;;;;;;6.00;0.75;;;13.40;99.90;;;;;;5017666;28;20431;-74
2021/10/16 11:16:01;;;;;;;6.15;0.22;;;13.30;99.90;;;;;;5018423;28;20476;-73
2021/10/16 11:18:27;;;;;;;3.55;0.10;;;13.40;99.90;;;;;;5017077;28;20380;-74
2021/10/16 11:20:55;;;;;;;10.80;0.25;;;13.50;99.90;;;;;;5016915;28;20014;-74
2021/10/16 11:23:25;;;;;;;3.47;0.10;;;13.60;99.90;;;;;;5015226;28;20113;-71
2021/10/16 11:26:02;;;;;;;7.78;1.10;;;13.70;99.90;;;;;;5013453;28;20101;-74
2021/10/16 11:28:29;;;;;;;2.42;0.20;;;13.80;99.90;;;;;;5015728;28;20048;-73
2021/10/16 11:30:56;;;;;;;6.22;0.30;;;13.80;99.90;;;;;;5017465;28;20033;-73
2021/10/16 11:33:25;;;;;;;8.43;0.50;;;13.80;99.90;;;;;;5018774;28;20033;-73
2021/10/16 11:35:52;;;;;;;5.55;0.00;;;13.90;99.90;;;;;;5018299;28;20049;-73
2021/10/16 11:38:22;;;;;;;6.90;0.28;;;13.80;99.90;;;;;;5017550;28;20022;-73
2021/10/16 11:40:49;;;;;;;6.25;0.15;;;13.80;99.90;;;;;;5018034;28;20105;-72
2021/10/16 11:43:20;;;;;;;4.90;0.50;;;13.80;99.90;;;;;;5023542;28;20026;-72
2021/10/16 11:45:48;;;;;;;9.40;0.65;;;13.70;99.90;;;;;;5022410;28;20044;-72
2021/10/16 11:48:16;;;;;;;7.40;1.00;;;13.70;99.90;;;;;;5022800;28;20026;-72
2021/10/16 11:51:05;;;;;;;5.30;0.30;;;13.70;99.90;;;;;;5021962;28;20022;-73
2021/10/16 11:53:34;;;;;;;7.32;0.15;;;13.70;99.90;;;;;;5021125;28;20076;-72
2021/10/16 11:56:05;;;;;;;;;;;13.70;99.90;;;;;;5020244;28;20025;-73
2021/10/16 11:58:31;;;;;;;6.47;0.30;;;13.80;99.90;;;;;;5019148;28;20003;-73
2021/10/16 12:01:01;;;;;;;9.48;0.10;;;13.90;99.90;;;;;;5019419;28;20057;-74
2021/10/16 12:03:40;;;;;;;10.52;1.42;;;14.10;99.90;;;;;;5019936;28;20033;-73
2021/10/16 12:06:14;;;;;;;6.43;0.75;;;14.30;99.90;;;;;;5019780;28;20026;-73
2021/10/16 12:08:54;;;;;;;11.48;0.80;;;14.60;99.90;;;;;;5016881;28;20029;-74
2021/10/16 12:11:29;;;;;;;5.40;0.70;;;14.90;99.90;;;;;;5016411;28;20034;-75
2021/10/16 12:14:05;;;;;;;8.80;0.47;;;15.10;99.90;;;;;;5016215;28;20025;-76
2021/10/16 12:16:42;;;;;;;7.13;0.57;;;15.50;99.90;;;;;;5014948;28;20573;-74
2021/10/16 12:19:19;;;;;;;9.02;0.77;;;15.80;99.90;;;;;;5016261;28;20022;-74
2021/10/16 12:21:47;;;;;;;6.38;0.70;;;16.20;99.90;;;;;;5016106;28;20022;-74
2021/10/16 12:24:16;;;;;;;6.70;0.57;;;16.40;99.70;;;;;;5016144;28;20121;-74
2021/10/16 12:26:44;;;;;;;8.80;0.80;;;16.40;98.60;;;;;;5016485;28;20097;-74
2021/10/16 12:29:31;;;;;;;7.63;0.40;;;16.40;96.90;;;;;;5015073;28;20049;-74
2021/10/16 12:31:57;;;;;;;3.35;0.38;;;16.20;96.30;;;;;;5015754;28;20363;-74
2021/10/16 12:34:24;;;;;;;5.20;0.30;;;16.10;96.20;;;;;;5016336;28;20471;-74
2021/10/16 12:37:03;;;;;;;8.05;0.60;;;16.10;97.20;;;;;;5014665;28;20018;-74
2021/10/16 12:39:36;;;;;;;10.25;1.15;;;16.10;96.10;;;;;;5015111;28;20037;-74
2021/10/16 12:42:21;;;;;;;10.23;0.75;;;16.00;94.30;;;;;;5015598;28;20018;-74
2021/10/16 12:44:51;;;;;;;8.95;0.28;;;16.00;94.80;;;;;;5016028;28;20030;-74
2021/10/16 12:47:19;;;;;;;10.98;0.50;;;15.90;92.40;;;;;;5015351;28;20103;-74
2021/10/16 12:50:00;;;;;;;7.32;0.40;;;15.80;93.60;;;;;;5015675;28;20053;-74
2021/10/16 12:52:29;;;;;;;11.07;1.00;;;15.60;90.80;;;;;;5014273;28;20032;-74
2021/10/16 12:54:57;;;;;;;4.13;0.57;;;15.50;90.10;;;;;;5016441;28;20026;-73
2021/10/16 12:57:23;;;;;;;4.93;0.77;;;15.40;92.20;;;;;;5019901;28;20116;-73